createdAt,value
2019-01-12T00:00:31.435Z,43.52
2019-01-12T00:03:00.002Z,39.35
2019-01-12T00:05:28.668Z,42.23
2019-01-12T00:07:57.298Z,39.40
2019-01-12T00:10:25.887Z,44.30
2019-01-12T00:12:54.452Z,39.92
2019-01-12T00:15:23.035Z,56.58
2019-01-12T00:17:51.598Z,37.70
2019-01-12T00:20:20.187Z,47.13
2019-01-12T00:22:48.763Z,39.15
2019-01-12T00:25:17.356Z,40.33
2019-01-12T00:27:45.918Z,36.93
2019-01-12T00:30:14.647Z,34.78
2019-01-12T00:32:43.215Z,38.20
2019-01-12T00:35:11.794Z,28.70
2019-01-12T00:37:40.371Z,35.95
2019-01-12T00:40:09.997Z,39.67
2019-01-12T00:42:38.560Z,29.35
2019-01-12T00:45:10.251Z,33.55
2019-01-12T00:47:38.815Z,40.52
2019-01-12T00:50:10.748Z,32.23
2019-01-12T00:52:39.314Z,33.08
2019-01-12T00:55:08.135Z,20.52
2019-01-12T00:57:36.708Z,31.50
2019-01-12T01:00:08.369Z,31.93
2019-01-12T01:02:36.939Z,27.15
2019-01-12T01:05:07.359Z,26.70
2019-01-12T01:07:35.919Z,33.70
2019-01-12T01:10:10.304Z,20.92
2019-01-12T01:12:38.863Z,30.55
2019-01-12T01:15:09.986Z,28.60
2019-01-12T01:17:38.614Z,26.15
2019-01-12T01:20:09.838Z,31.60
2019-01-12T01:22:38.541Z,24.10
2019-01-12T01:25:08.468Z,34.08
2019-01-12T01:27:37.027Z,27.10
2019-01-12T01:30:11.459Z,27.52
2019-01-12T01:32:40.023Z,25.65
2019-01-12T01:35:08.746Z,29.32
2019-01-12T01:37:37.311Z,21.87
2019-01-12T01:40:09.234Z,30.70
2019-01-12T01:42:37.798Z,21.30
2019-01-12T01:45:08.522Z,25.32
2019-01-12T01:47:37.086Z,29.32
2019-01-12T01:50:07.903Z,36.05
2019-01-12T01:52:36.536Z,32.73
2019-01-12T01:55:06.160Z,30.02
2019-01-12T01:57:34.722Z,22.40
2019-01-12T02:00:03.747Z,24.35
2019-01-12T02:02:32.312Z,29.90
2019-01-12T02:05:00.887Z,29.25
2019-01-12T02:07:29.471Z,34.85
2019-01-12T02:09:58.039Z,16.97
2019-01-12T02:12:26.623Z,18.55
2019-01-12T02:14:55.187Z,41.83
2019-01-12T02:17:23.767Z,26.17
2019-01-12T02:19:52.600Z,16.40
2019-01-12T02:22:21.182Z,31.20
2019-01-12T02:24:49.752Z,29.70
2019-01-12T02:27:18.344Z,36.40
2019-01-12T02:29:46.908Z,28.77
2019-01-12T02:32:15.491Z,39.85
2019-01-12T02:34:44.055Z,17.77
2019-01-12T02:37:12.639Z,22.52
2019-01-12T02:39:41.208Z,25.40
2019-01-12T02:42:09.790Z,19.00
2019-01-12T02:44:38.351Z,26.77
2019-01-12T02:47:06.940Z,24.80
2019-01-12T02:49:35.503Z,33.83
2019-01-12T02:52:04.155Z,25.68
2019-01-12T02:54:32.720Z,21.20
2019-01-12T02:57:01.304Z,14.98
2019-01-12T02:59:29.884Z,29.40
2019-01-12T03:01:58.532Z,18.10
2019-01-12T03:04:27.090Z,45.78
2019-01-12T03:06:55.676Z,29.48
2019-01-12T03:09:24.234Z,20.05
2019-01-12T03:11:52.819Z,29.50
2019-01-12T03:14:21.387Z,34.45
2019-01-12T03:16:49.972Z,24.10
2019-01-12T03:19:18.535Z,39.20
2019-01-12T03:21:47.191Z,35.08
2019-01-12T03:24:15.749Z,26.93
2019-01-12T03:26:44.339Z,29.42
2019-01-12T03:29:12.905Z,23.60
2019-01-12T03:31:41.492Z,25.23
2019-01-12T03:34:10.431Z,31.57
2019-01-12T03:36:39.018Z,18.92
2019-01-12T03:39:08.020Z,21.25
2019-01-12T03:41:36.675Z,19.52
2019-01-12T03:44:05.489Z,22.10
2019-01-12T03:46:34.059Z,33.00
2019-01-12T03:49:02.625Z,27.73
2019-01-12T03:51:31.207Z,34.85
2019-01-12T03:53:59.774Z,26.40
2019-01-12T03:56:28.359Z,47.23
2019-01-12T03:58:56.919Z,27.05
2019-01-12T04:01:25.511Z,24.20
2019-01-12T04:03:54.139Z,33.85
2019-01-12T04:06:22.728Z,39.33
2019-01-12T04:08:51.291Z,29.07
2019-01-12T04:11:19.877Z,23.47
2019-01-12T04:13:48.441Z,20.43
2019-01-12T04:16:17.103Z,29.82
2019-01-12T04:18:45.663Z,31.90
2019-01-12T04:21:14.255Z,42.05
2019-01-12T04:23:42.815Z,36.17
2019-01-12T04:26:11.397Z,40.65
2019-01-12T04:28:39.957Z,31.35
2019-01-12T04:31:08.515Z,29.32
2019-01-12T04:33:37.099Z,31.12
2019-01-12T04:36:05.663Z,29.95
2019-01-12T04:38:34.251Z,21.35
2019-01-12T04:41:02.817Z,28.92
2019-01-12T04:43:31.405Z,22.20
2019-01-12T04:45:59.966Z,36.10
2019-01-12T04:48:28.557Z,39.25
2019-01-12T04:50:57.479Z,29.90
2019-01-12T04:53:26.019Z,22.70
2019-01-12T04:55:54.578Z,33.80
2019-01-12T04:58:23.158Z,31.42
2019-01-12T05:00:51.727Z,27.55
2019-01-12T05:03:20.307Z,41.48
2019-01-12T05:05:48.872Z,36.53
2019-01-12T05:08:17.468Z,27.45
2019-01-12T05:10:46.023Z,33.60
2019-01-12T05:13:14.617Z,33.60
2019-01-12T05:15:43.170Z,34.05
2019-01-12T05:18:11.756Z,29.92
2019-01-12T05:20:40.319Z,30.08
2019-01-12T05:23:08.907Z,28.15
2019-01-12T05:25:37.472Z,27.30
2019-01-12T05:28:06.054Z,33.98
2019-01-12T05:30:34.618Z,28.85
2019-01-12T05:33:03.203Z,43.48
2019-01-12T05:35:31.767Z,29.20
2019-01-12T05:38:00.361Z,33.55
2019-01-12T05:40:28.928Z,22.98
2019-01-12T05:42:57.519Z,59.67
2019-01-12T05:45:26.089Z,34.48
2019-01-12T05:47:54.675Z,26.12
2019-01-12T05:50:23.235Z,33.48
2019-01-12T05:52:51.814Z,43.00
2019-01-12T05:55:20.387Z,30.05
2019-01-12T05:57:48.973Z,24.82
2019-01-12T06:00:19.100Z,34.95
2019-01-12T06:02:47.687Z,26.57
2019-01-12T06:05:16.250Z,43.23
2019-01-12T06:07:44.855Z,32.15
2019-01-12T06:10:14.718Z,30.12
2019-01-12T06:12:43.710Z,23.30
2019-01-12T06:15:13.711Z,26.07
2019-01-12T06:17:42.299Z,36.08
2019-01-12T06:20:13.299Z,23.05
2019-01-12T06:22:41.959Z,32.13
2019-01-12T06:25:10.706Z,25.20
2019-01-12T06:27:39.355Z,24.35
2019-01-12T06:30:13.822Z,36.20
2019-01-12T06:32:42.410Z,27.32
2019-01-12T06:35:11.034Z,22.30
2019-01-12T06:37:39.614Z,29.00
2019-01-12T06:40:11.008Z,29.07
2019-01-12T06:42:39.591Z,16.80
2019-01-12T06:45:11.187Z,27.48
2019-01-12T06:47:39.772Z,16.40
2019-01-12T06:50:10.867Z,30.12
2019-01-12T06:52:39.518Z,30.55
2019-01-12T06:55:10.319Z,26.17
2019-01-12T06:57:38.911Z,24.50
2019-01-12T07:00:10.776Z,28.35
2019-01-12T07:02:39.360Z,23.67
2019-01-12T07:05:08.258Z,38.78
2019-01-12T07:07:36.843Z,21.10
2019-01-12T07:10:08.507Z,28.20
2019-01-12T07:12:37.087Z,23.92
2019-01-12T07:15:08.192Z,21.45
2019-01-12T07:17:36.779Z,41.15
2019-01-12T07:20:13.459Z,24.80
2019-01-12T07:22:42.038Z,57.53
2019-01-12T07:25:10.665Z,37.93
2019-01-12T07:27:39.255Z,27.42
2019-01-12T07:30:14.473Z,26.42
2019-01-12T07:32:43.058Z,34.53
2019-01-12T07:35:11.698Z,17.48
2019-01-12T07:37:40.276Z,19.45
2019-01-12T07:40:08.971Z,19.25
2019-01-12T07:42:37.531Z,22.80
2019-01-12T07:45:08.555Z,22.25
2019-01-12T07:47:37.138Z,29.60
2019-01-12T07:50:08.848Z,14.83
2019-01-12T07:52:37.416Z,23.15
2019-01-12T07:55:07.409Z,17.90
2019-01-12T07:57:35.936Z,20.17
2019-01-12T08:00:10.371Z,24.45
2019-01-12T08:02:38.935Z,13.35
2019-01-12T08:05:07.665Z,19.98
2019-01-12T08:07:37.758Z,20.43
2019-01-12T08:10:09.416Z,28.38
2019-01-12T08:12:38.046Z,17.52
2019-01-12T08:15:06.943Z,18.20
2019-01-12T08:17:35.502Z,13.80
2019-01-12T08:20:06.891Z,15.93
2019-01-12T08:22:35.467Z,28.55
2019-01-12T08:25:05.488Z,23.75
2019-01-12T08:27:34.052Z,13.43
2019-01-12T08:30:03.003Z,13.75
2019-01-12T08:32:31.562Z,14.65
2019-01-12T08:35:00.229Z,15.88
2019-01-12T08:37:28.707Z,17.77
2019-01-12T08:39:57.290Z,10.30
2019-01-12T08:42:27.143Z,13.45
2019-01-12T08:44:55.743Z,12.60
2019-01-12T08:47:24.306Z,16.57
2019-01-12T08:49:52.891Z,8.80
2019-01-12T08:52:21.451Z,8.88
2019-01-12T08:54:50.035Z,8.83
2019-01-12T08:57:18.603Z,11.03
2019-01-12T08:59:47.182Z,13.00
2019-01-12T09:02:15.751Z,8.08
2019-01-12T09:04:44.335Z,7.58
2019-01-12T09:07:12.895Z,11.50
2019-01-12T09:09:41.478Z,17.85
2019-01-12T09:12:10.043Z,12.47
2019-01-12T09:14:38.636Z,9.38
2019-01-12T09:17:07.195Z,12.25
2019-01-12T09:19:35.775Z,12.07
2019-01-12T09:22:04.510Z,10.65
2019-01-12T09:24:33.094Z,11.08
2019-01-12T09:27:01.722Z,8.70
2019-01-12T09:29:30.305Z,6.90
2019-01-12T09:31:58.863Z,8.38
2019-01-12T09:34:27.446Z,10.03
2019-01-12T09:36:55.998Z,9.70
2019-01-12T09:39:24.574Z,7.33
2019-01-12T09:41:53.135Z,7.55
2019-01-12T09:44:21.723Z,7.60
2019-01-12T09:46:50.278Z,8.68
2019-01-12T09:49:18.863Z,9.95
2019-01-12T09:51:47.431Z,11.05
2019-01-12T09:54:16.023Z,6.95
2019-01-12T09:56:44.579Z,6.83
2019-01-12T09:59:13.159Z,8.30
2019-01-12T10:01:41.720Z,6.70
2019-01-12T10:04:10.302Z,5.95
2019-01-12T10:06:38.855Z,8.20
2019-01-12T10:09:07.771Z,8.13
2019-01-12T10:11:36.330Z,8.43
2019-01-12T10:14:04.983Z,6.42
2019-01-12T10:16:33.545Z,6.40
2019-01-12T10:19:02.119Z,8.78
2019-01-12T10:21:30.679Z,10.80
2019-01-12T10:23:59.258Z,6.97
2019-01-12T10:26:27.822Z,7.53
2019-01-12T10:28:56.422Z,3.92
2019-01-12T10:31:24.972Z,4.87
2019-01-12T10:33:53.527Z,5.08
2019-01-12T10:36:22.107Z,4.85
2019-01-12T10:38:50.663Z,5.25
2019-01-12T10:41:19.246Z,4.15
2019-01-12T10:43:47.808Z,9.85
2019-01-12T10:46:16.386Z,5.17
2019-01-12T10:48:44.951Z,4.72
2019-01-12T10:51:13.534Z,4.58
2019-01-12T10:53:42.095Z,3.90
2019-01-12T10:56:10.676Z,6.72
2019-01-12T10:58:39.234Z,5.33
2019-01-12T11:01:07.880Z,4.55
2019-01-12T11:03:36.438Z,5.03
2019-01-12T11:06:05.562Z,3.67
2019-01-12T11:08:34.122Z,5.55
2019-01-12T11:11:02.772Z,9.00
2019-01-12T11:13:31.332Z,4.60
2019-01-12T11:15:59.914Z,4.97
2019-01-12T11:18:28.548Z,2.42
2019-01-12T11:20:57.126Z,3.00
2019-01-12T11:23:25.692Z,3.17
2019-01-12T11:25:54.266Z,4.30
2019-01-12T11:28:22.823Z,4.45
2019-01-12T11:30:51.399Z,6.90
2019-01-12T11:33:19.961Z,7.55
2019-01-12T11:35:48.535Z,4.62
2019-01-12T11:38:17.095Z,4.47
2019-01-12T11:40:45.670Z,4.80
2019-01-12T11:43:14.235Z,2.95
2019-01-12T11:45:42.814Z,6.00
2019-01-12T11:48:11.375Z,4.78
2019-01-12T11:50:39.950Z,3.08
2019-01-12T11:53:08.514Z,2.37
2019-01-12T11:55:37.095Z,3.47
2019-01-12T11:58:05.995Z,2.60
2019-01-12T12:00:34.579Z,4.90
2019-01-12T12:03:03.210Z,3.92
2019-01-12T12:05:31.855Z,4.60
2019-01-12T12:08:00.483Z,7.92
2019-01-12T12:10:29.059Z,4.70
2019-01-12T12:12:57.617Z,4.22
2019-01-12T12:15:26.267Z,5.75
2019-01-12T12:17:54.825Z,13.78
2019-01-12T12:20:25.552Z,4.05
2019-01-12T12:22:54.114Z,3.92
2019-01-12T12:25:22.691Z,4.42
2019-01-12T12:27:51.259Z,2.17
2019-01-12T12:30:22.547Z,3.67
2019-01-12T12:32:51.102Z,3.70
2019-01-12T12:35:19.818Z,3.02
2019-01-12T12:37:48.379Z,7.05
2019-01-12T12:40:19.294Z,5.08
2019-01-12T12:42:47.859Z,4.65
2019-01-12T12:45:19.047Z,3.50
2019-01-12T12:47:47.597Z,3.80
2019-01-12T12:50:16.619Z,3.50
2019-01-12T12:52:45.247Z,4.87
2019-01-12T12:55:16.077Z,6.90
2019-01-12T12:57:44.817Z,3.58
2019-01-12T13:00:16.206Z,4.97
2019-01-12T13:02:44.834Z,5.40
2019-01-12T13:05:13.481Z,5.35
2019-01-12T13:07:42.039Z,5.75
2019-01-12T13:10:19.784Z,5.95
2019-01-12T13:12:48.487Z,7.12
2019-01-12T13:15:17.240Z,5.72
2019-01-12T13:17:45.871Z,4.87
2019-01-12T13:20:16.570Z,7.42
2019-01-12T13:22:45.508Z,6.33
2019-01-12T13:25:14.807Z,3.87
2019-01-12T13:27:43.526Z,4.78
2019-01-12T13:30:17.439Z,4.90
2019-01-12T13:32:46.163Z,5.40
2019-01-12T13:35:14.876Z,5.83
2019-01-12T13:37:43.511Z,6.12
2019-01-12T13:40:15.211Z,5.97
2019-01-12T13:42:43.794Z,5.42
2019-01-12T13:45:15.094Z,5.30
2019-01-12T13:47:43.744Z,4.60
2019-01-12T13:50:14.638Z,5.10
2019-01-12T13:52:43.219Z,6.17
2019-01-12T13:55:13.619Z,6.03
2019-01-12T13:57:47.287Z,6.20
2019-01-12T14:00:24.872Z,4.92
2019-01-12T14:02:53.451Z,4.42
2019-01-12T14:05:22.013Z,6.95
2019-01-12T14:07:56.271Z,8.00
2019-01-12T14:10:21.302Z,4.97
2019-01-12T14:12:50.790Z,5.58
2019-01-12T14:15:19.982Z,5.28
2019-01-12T14:17:48.638Z,5.42
2019-01-12T14:20:22.824Z,4.67
2019-01-12T14:22:51.407Z,5.95
2019-01-12T14:25:19.971Z,6.03
2019-01-12T14:27:54.400Z,5.80
2019-01-12T14:30:19.899Z,4.95
2019-01-12T14:32:48.806Z,4.65
2019-01-12T14:35:18.407Z,4.72
2019-01-12T14:37:47.061Z,4.47
2019-01-12T14:40:17.926Z,7.08
2019-01-12T14:42:46.568Z,4.22
2019-01-12T14:45:18.232Z,6.55
2019-01-12T14:47:46.807Z,5.47
2019-01-12T14:50:15.362Z,7.50
2019-01-12T14:52:44.017Z,4.22
2019-01-12T14:55:17.241Z,4.75
2019-01-12T14:57:45.823Z,8.70
2019-01-12T15:00:19.688Z,10.05
2019-01-12T15:02:48.340Z,6.33
2019-01-12T15:05:18.841Z,6.40
2019-01-12T15:07:47.488Z,10.23
2019-01-12T15:10:17.888Z,8.93
2019-01-12T15:12:46.910Z,7.95
2019-01-12T15:15:17.112Z,8.30
2019-01-12T15:17:45.996Z,8.70
2019-01-12T15:20:20.033Z,8.50
2019-01-12T15:22:48.611Z,8.53
2019-01-12T15:25:17.441Z,14.55
2019-01-12T15:27:46.022Z,8.65
2019-01-12T15:30:20.551Z,14.33
2019-01-12T15:32:49.278Z,14.58
2019-01-12T15:35:18.477Z,9.65
2019-01-12T15:37:47.058Z,10.75
2019-01-12T15:40:17.562Z,12.53
2019-01-12T15:42:46.382Z,10.60
2019-01-12T15:45:17.577Z,11.20
2019-01-12T15:47:46.166Z,12.82
2019-01-12T15:50:16.970Z,10.80
2019-01-12T15:52:45.734Z,11.60
2019-01-12T15:55:14.595Z,9.23
2019-01-12T15:57:43.292Z,13.15
2019-01-12T16:00:14.959Z,13.35
2019-01-12T16:02:43.543Z,11.55
2019-01-12T16:05:12.172Z,11.68
2019-01-12T16:07:40.755Z,11.38
2019-01-12T16:10:13.015Z,17.15
2019-01-12T16:12:41.598Z,16.12
2019-01-12T16:15:13.381Z,18.77
2019-01-12T16:17:41.964Z,8.05
2019-01-12T16:20:13.732Z,9.25
2019-01-12T16:22:42.314Z,8.08
2019-01-12T16:25:11.511Z,9.23
2019-01-12T16:27:40.095Z,9.15
2019-01-12T16:30:14.642Z,6.45
2019-01-12T16:32:43.215Z,9.80
2019-01-12T16:35:11.914Z,7.75
2019-01-12T16:37:40.495Z,7.58
2019-01-12T16:40:12.466Z,6.60
2019-01-12T16:42:41.046Z,9.45
2019-01-12T16:45:10.342Z,8.55
2019-01-12T16:47:38.926Z,6.97
2019-01-12T16:50:08.163Z,9.60
2019-01-12T16:52:36.746Z,10.58
2019-01-12T16:55:08.652Z,7.97
2019-01-12T16:57:37.236Z,7.60
2019-01-12T17:00:08.873Z,6.42
2019-01-12T17:02:37.446Z,4.55
2019-01-12T17:05:06.378Z,5.67
2019-01-12T17:07:35.031Z,6.62
2019-01-12T17:10:05.498Z,10.90
2019-01-12T17:12:34.094Z,5.95
2019-01-12T17:15:02.651Z,5.75
2019-01-12T17:17:31.228Z,5.92
2019-01-12T17:19:59.787Z,8.78
2019-01-12T17:22:28.366Z,5.22
2019-01-12T17:24:56.927Z,6.92
2019-01-12T17:27:25.507Z,7.00
2019-01-12T17:29:54.071Z,7.85
2019-01-12T17:32:22.651Z,6.90
2019-01-12T17:34:51.213Z,5.70
2019-01-12T17:37:19.791Z,5.30
2019-01-12T17:39:48.351Z,4.85
2019-01-12T17:42:16.917Z,6.33
2019-01-12T17:44:45.487Z,6.08
2019-01-12T17:47:14.047Z,7.67
2019-01-12T17:49:42.627Z,6.40
2019-01-12T17:52:11.208Z,7.22
2019-01-12T17:54:39.779Z,6.78
2019-01-12T17:57:08.343Z,3.58
2019-01-12T17:59:36.923Z,6.80
2019-01-12T18:02:05.551Z,5.10
2019-01-12T18:04:34.135Z,6.30
2019-01-12T18:07:02.694Z,5.87
2019-01-12T18:09:31.271Z,6.47
2019-01-12T18:11:59.832Z,8.43
2019-01-12T18:14:28.410Z,6.25
2019-01-12T18:16:56.978Z,7.35
2019-01-12T18:19:25.560Z,6.80
2019-01-12T18:21:54.118Z,8.75
2019-01-12T18:24:22.699Z,6.47
2019-01-12T18:26:51.258Z,18.82
2019-01-12T18:29:19.839Z,7.80
2019-01-12T18:31:48.449Z,5.30
2019-01-12T18:34:16.971Z,4.60
2019-01-12T18:36:45.540Z,8.83
2019-01-12T18:39:14.118Z,8.35
2019-01-12T18:41:42.680Z,5.90
2019-01-12T18:44:11.258Z,6.12
2019-01-12T18:46:39.819Z,4.50
2019-01-12T18:49:08.398Z,4.25
2019-01-12T18:51:36.955Z,5.37
2019-01-12T18:54:05.539Z,6.10
2019-01-12T18:56:34.103Z,5.28
2019-01-12T18:59:02.687Z,5.15
2019-01-12T19:01:31.247Z,5.90
2019-01-12T19:03:59.849Z,5.78
2019-01-12T19:06:28.403Z,6.33
2019-01-12T19:08:56.987Z,4.47
2019-01-12T19:11:25.551Z,5.30
2019-01-12T19:13:54.135Z,4.65
2019-01-12T19:16:22.762Z,6.25
2019-01-12T19:18:51.611Z,5.35
2019-01-12T19:21:20.171Z,7.62
2019-01-12T19:23:48.751Z,5.92
2019-01-12T19:26:17.311Z,4.78
2019-01-12T19:28:45.891Z,7.50
2019-01-12T19:31:14.451Z,4.78
2019-01-12T19:33:43.035Z,4.20
2019-01-12T19:36:11.599Z,4.62
2019-01-12T19:38:40.183Z,4.95
2019-01-12T19:41:08.758Z,2.70
2019-01-12T19:43:37.323Z,3.47
2019-01-12T19:46:05.883Z,5.05
2019-01-12T19:48:34.464Z,5.17
2019-01-12T19:51:03.077Z,5.90
2019-01-12T19:53:31.651Z,4.00
2019-01-12T19:56:00.215Z,3.62
2019-01-12T19:58:28.801Z,5.53
2019-01-12T20:00:57.354Z,4.35
2019-01-12T20:03:25.915Z,4.08
2019-01-12T20:05:54.495Z,3.70
2019-01-12T20:08:23.055Z,4.67
2019-01-12T20:10:51.626Z,5.37
2019-01-12T20:13:20.186Z,3.05
2019-01-12T20:15:48.776Z,3.83
2019-01-12T20:18:17.329Z,2.52
2019-01-12T20:20:45.907Z,4.20
2019-01-12T20:23:14.463Z,3.40
2019-01-12T20:25:43.044Z,5.00
2019-01-12T20:28:11.602Z,3.15
2019-01-12T20:30:43.259Z,3.20
2019-01-12T20:33:32.556Z,4.00
2019-01-12T20:36:37.314Z,4.65
2019-01-12T20:39:23.154Z,3.00
2019-01-12T20:42:09.515Z,4.47
2019-01-12T20:44:43.764Z,4.35
2019-01-12T20:47:24.310Z,2.70
2019-01-12T20:49:55.967Z,4.33
2019-01-12T20:52:45.411Z,6.45
2019-01-12T20:55:26.274Z,4.50
2019-01-12T20:58:06.651Z,5.90
2019-01-12T21:01:13.000Z,3.00
2019-01-12T21:03:56.514Z,3.70
2019-01-12T21:06:33.759Z,4.92
2019-01-12T21:09:14.054Z,4.83
2019-01-12T21:11:53.915Z,3.65
2019-01-12T21:14:34.614Z,3.67
2019-01-12T21:17:03.178Z,4.15
2019-01-12T21:19:31.763Z,4.87
2019-01-12T21:22:00.326Z,5.40
2019-01-12T21:24:28.903Z,6.62
2019-01-12T21:26:57.462Z,5.97
2019-01-12T21:29:26.047Z,11.33
2019-01-12T21:31:54.882Z,7.15
2019-01-12T21:34:23.459Z,5.60
2019-01-12T21:36:52.015Z,6.90
2019-01-12T21:39:20.662Z,5.55
2019-01-12T21:41:49.520Z,5.62
2019-01-12T21:44:18.103Z,4.45
2019-01-12T21:46:46.663Z,4.30
2019-01-12T21:49:15.239Z,5.47
2019-01-12T21:51:43.791Z,5.05
2019-01-12T21:54:12.351Z,5.00
2019-01-12T21:56:40.936Z,5.00
2019-01-12T21:59:09.504Z,4.12
2019-01-12T22:01:38.083Z,5.15
2019-01-12T22:04:06.643Z,4.45
2019-01-12T22:06:35.231Z,3.10
2019-01-12T22:09:07.876Z,3.05
2019-01-12T22:11:36.522Z,4.95
2019-01-12T22:14:05.451Z,3.75
2019-01-12T22:16:34.039Z,4.35
2019-01-12T22:19:02.602Z,3.25
2019-01-12T22:21:31.183Z,7.47
2019-01-12T22:23:59.743Z,3.27
2019-01-12T22:26:28.323Z,3.67
2019-01-12T22:28:56.883Z,3.35
2019-01-12T22:31:25.467Z,3.87
2019-01-12T22:33:54.031Z,4.17
2019-01-12T22:36:22.616Z,3.35
2019-01-12T22:38:51.178Z,2.92
2019-01-12T22:41:19.765Z,4.17
2019-01-12T22:43:48.322Z,3.98
2019-01-12T22:46:16.902Z,6.62
2019-01-12T22:48:45.458Z,5.22
2019-01-12T22:51:14.038Z,5.85
2019-01-12T22:53:42.600Z,4.90
2019-01-12T22:56:11.182Z,5.37
2019-01-12T22:58:39.743Z,5.75
2019-01-12T23:01:11.403Z,6.05
2019-01-12T23:03:42.403Z,3.67
2019-01-12T23:06:11.060Z,3.98
2019-01-12T23:08:39.623Z,3.87
2019-01-12T23:11:08.206Z,4.22
2019-01-12T23:13:36.767Z,5.17
2019-01-12T23:16:05.579Z,7.55
2019-01-12T23:18:34.139Z,4.42
2019-01-12T23:21:02.708Z,5.85
2019-01-12T23:23:31.262Z,5.70
2019-01-12T23:25:59.847Z,6.65
2019-01-12T23:28:28.406Z,4.45
2019-01-12T23:30:56.986Z,4.70
2019-01-12T23:33:25.571Z,4.80
2019-01-12T23:35:54.160Z,4.47
2019-01-12T23:38:22.714Z,4.85
2019-01-12T23:40:51.351Z,3.83
2019-01-12T23:43:19.854Z,3.30
2019-01-12T23:45:48.434Z,4.67
2019-01-12T23:48:17.005Z,7.55
2019-01-12T23:50:45.574Z,5.95
2019-01-12T23:53:14.148Z,4.80
2019-01-12T23:55:42.721Z,4.35
2019-01-12T23:58:11.283Z,5.83
